sensor_id;sensor_type;location;lat;lon;timestamp;P1;durP1;ratioP1;P2;durP2;ratioP2
4577;SDS011;2301;47.354;8.528;2022-08-26T00:02:09;8.50;;;4.50;;
4577;SDS011;2301;47.354;8.528;2022-08-26T00:04:36;8.60;;;4.57;;
4577;SDS011;2301;47.354;8.528;2022-08-26T00:07:04;6.93;;;4.77;;
4577;SDS011;2301;47.354;8.528;2022-08-26T00:09:31;6.93;;;4.93;;
4577;SDS011;2301;47.354;8.528;2022-08-26T00:11:58;6.07;;;4.30;;
4577;SDS011;2301;47.354;8.528;2022-08-26T00:14:25;6.00;;;4.13;;
4577;SDS011;2301;47.354;8.528;2022-08-26T00:16:54;4.53;;;3.73;;
4577;SDS011;2301;47.354;8.528;2022-08-26T00:19:21;5.90;;;4.30;;
4577;SDS011;2301;47.354;8.528;2022-08-26T00:21:48;4.87;;;4.40;;
4577;SDS011;2301;47.354;8.528;2022-08-26T00:24:15;4.57;;;4.10;;
4577;SDS011;2301;47.354;8.528;2022-08-26T00:26:42;5.57;;;4.17;;
4577;SDS011;2301;47.354;8.528;2022-08-26T00:29:09;5.83;;;4.53;;
4577;SDS011;2301;47.354;8.528;2022-08-26T00:31:36;6.07;;;4.40;;
4577;SDS011;2301;47.354;8.528;2022-08-26T00:34:04;6.33;;;4.57;;
4577;SDS011;2301;47.354;8.528;2022-08-26T00:36:31;6.13;;;4.20;;
4577;SDS011;2301;47.354;8.528;2022-08-26T00:38:58;6.93;;;4.07;;
4577;SDS011;2301;47.354;8.528;2022-08-26T00:41:25;5.60;;;4.60;;
4577;SDS011;2301;47.354;8.528;2022-08-26T00:43:52;6.17;;;4.47;;
4577;SDS011;2301;47.354;8.528;2022-08-26T00:46:20;4.80;;;4.40;;
4577;SDS011;2301;47.354;8.528;2022-08-26T00:48:50;5.80;;;4.47;;
4577;SDS011;2301;47.354;8.528;2022-08-26T00:51:24;4.90;;;4.37;;
4577;SDS011;2301;47.354;8.528;2022-08-26T00:53:54;4.77;;;4.37;;
4577;SDS011;2301;47.354;8.528;2022-08-26T00:56:27;6.33;;;4.10;;
4577;SDS011;2301;47.354;8.528;2022-08-26T00:58:58;6.60;;;4.17;;
4577;SDS011;2301;47.354;8.528;2022-08-26T01:01:27;7.87;;;4.80;;
4577;SDS011;2301;47.354;8.528;2022-08-26T01:03:55;5.23;;;4.20;;
4577;SDS011;2301;47.354;8.528;2022-08-26T01:06:23;5.53;;;4.13;;
4577;SDS011;2301;47.354;8.528;2022-08-26T01:08:51;8.53;;;4.70;;
4577;SDS011;2301;47.354;8.528;2022-08-26T01:11:18;6.30;;;4.30;;
4577;SDS011;2301;47.354;8.528;2022-08-26T01:13:45;7.83;;;4.53;;
4577;SDS011;2301;47.354;8.528;2022-08-26T01:16:14;10.07;;;5.27;;
4577;SDS011;2301;47.354;8.528;2022-08-26T01:18:41;5.43;;;4.40;;
4577;SDS011;2301;47.354;8.528;2022-08-26T01:21:11;5.00;;;4.50;;
4577;SDS011;2301;47.354;8.528;2022-08-26T01:23:47;10.73;;;4.40;;
4577;SDS011;2301;47.354;8.528;2022-08-26T01:26:16;6.00;;;4.30;;
4577;SDS011;2301;47.354;8.528;2022-08-26T01:28:46;5.33;;;4.63;;
4577;SDS011;2301;47.354;8.528;2022-08-26T01:31:16;6.17;;;4.27;;
4577;SDS011;2301;47.354;8.528;2022-08-26T01:33:47;4.67;;;4.30;;
4577;SDS011;2301;47.354;8.528;2022-08-26T01:36:20;4.63;;;4.23;;
4577;SDS011;2301;47.354;8.528;2022-08-26T01:38:49;5.50;;;3.93;;
4577;SDS011;2301;47.354;8.528;2022-08-26T01:41:16;5.70;;;4.30;;
4577;SDS011;2301;47.354;8.528;2022-08-26T01:43:45;4.20;;;3.80;;
4577;SDS011;2301;47.354;8.528;2022-08-26T01:46:14;8.33;;;4.43;;
4577;SDS011;2301;47.354;8.528;2022-08-26T01:48:44;6.87;;;4.80;;
4577;SDS011;2301;47.354;8.528;2022-08-26T01:51:12;7.30;;;4.40;;
4577;SDS011;2301;47.354;8.528;2022-08-26T01:53:40;5.30;;;4.30;;
4577;SDS011;2301;47.354;8.528;2022-08-26T01:56:09;4.83;;;4.23;;
4577;SDS011;2301;47.354;8.528;2022-08-26T01:58:39;4.97;;;4.47;;
4577;SDS011;2301;47.354;8.528;2022-08-26T02:01:10;4.97;;;4.00;;
4577;SDS011;2301;47.354;8.528;2022-08-26T02:03:42;4.60;;;4.30;;
4577;SDS011;2301;47.354;8.528;2022-08-26T02:06:15;6.47;;;4.27;;
4577;SDS011;2301;47.354;8.528;2022-08-26T02:08:44;5.80;;;4.53;;
4577;SDS011;2301;47.354;8.528;2022-08-26T02:11:15;5.27;;;4.47;;
4577;SDS011;2301;47.354;8.528;2022-08-26T02:13:43;4.90;;;4.17;;
4577;SDS011;2301;47.354;8.528;2022-08-26T02:16:11;5.80;;;4.63;;
4577;SDS011;2301;47.354;8.528;2022-08-26T02:18:42;8.37;;;4.40;;
4577;SDS011;2301;47.354;8.528;2022-08-26T02:21:10;6.30;;;4.30;;
4577;SDS011;2301;47.354;8.528;2022-08-26T02:23:38;6.40;;;4.90;;
4577;SDS011;2301;47.354;8.528;2022-08-26T02:26:06;6.33;;;4.47;;
4577;SDS011;2301;47.354;8.528;2022-08-26T02:28:38;6.40;;;4.50;;
4577;SDS011;2301;47.354;8.528;2022-08-26T02:31:10;4.47;;;4.07;;
4577;SDS011;2301;47.354;8.528;2022-08-26T02:33:37;13.53;;;4.00;;
4577;SDS011;2301;47.354;8.528;2022-08-26T02:36:04;7.40;;;4.03;;
4577;SDS011;2301;47.354;8.528;2022-08-26T02:38:32;3.90;;;3.60;;
4577;SDS011;2301;47.354;8.528;2022-08-26T02:41:00;5.07;;;4.57;;
4577;SDS011;2301;47.354;8.528;2022-08-26T02:43:27;8.10;;;4.90;;
4577;SDS011;2301;47.354;8.528;2022-08-26T02:45:55;5.27;;;4.77;;
4577;SDS011;2301;47.354;8.528;2022-08-26T02:48:22;4.93;;;3.87;;
4577;SDS011;2301;47.354;8.528;2022-08-26T02:50:49;7.80;;;4.05;;
4577;SDS011;2301;47.354;8.528;2022-08-26T02:53:16;6.37;;;4.73;;
4577;SDS011;2301;47.354;8.528;2022-08-26T02:55:44;5.13;;;4.40;;
4577;SDS011;2301;47.354;8.528;2022-08-26T02:58:13;4.97;;;4.00;;
4577;SDS011;2301;47.354;8.528;2022-08-26T03:00:40;7.60;;;5.03;;
4577;SDS011;2301;47.354;8.528;2022-08-26T03:03:09;5.53;;;4.43;;
4577;SDS011;2301;47.354;8.528;2022-08-26T03:05:35;5.90;;;4.13;;
4577;SDS011;2301;47.354;8.528;2022-08-26T03:08:03;5.13;;;4.60;;
4577;SDS011;2301;47.354;8.528;2022-08-26T03:10:29;4.20;;;3.87;;
4577;SDS011;2301;47.354;8.528;2022-08-26T03:12:57;5.13;;;4.33;;
4577;SDS011;2301;47.354;8.528;2022-08-26T03:15:24;6.80;;;4.60;;
4577;SDS011;2301;47.354;8.528;2022-08-26T03:17:52;5.97;;;4.00;;
4577;SDS011;2301;47.354;8.528;2022-08-26T03:20:22;6.90;;;4.23;;
4577;SDS011;2301;47.354;8.528;2022-08-26T03:22:49;5.80;;;4.53;;
4577;SDS011;2301;47.354;8.528;2022-08-26T03:25:17;11.63;;;5.20;;
4577;SDS011;2301;47.354;8.528;2022-08-26T03:27:46;4.70;;;4.30;;
4577;SDS011;2301;47.354;8.528;2022-08-26T03:30:13;5.50;;;4.73;;
4577;SDS011;2301;47.354;8.528;2022-08-26T03:32:59;7.20;;;4.67;;
4577;SDS011;2301;47.354;8.528;2022-08-26T03:35:27;4.30;;;3.90;;
4577;SDS011;2301;47.354;8.528;2022-08-26T03:37:54;5.73;;;5.10;;
4577;SDS011;2301;47.354;8.528;2022-08-26T03:40:21;6.13;;;4.77;;
4577;SDS011;2301;47.354;8.528;2022-08-26T03:42:48;5.33;;;4.20;;
4577;SDS011;2301;47.354;8.528;2022-08-26T03:45:16;8.60;;;4.30;;
4577;SDS011;2301;47.354;8.528;2022-08-26T03:47:44;5.83;;;4.83;;
4577;SDS011;2301;47.354;8.528;2022-08-26T03:50:13;6.40;;;4.70;;
4577;SDS011;2301;47.354;8.528;2022-08-26T03:52:44;5.40;;;4.57;;
4577;SDS011;2301;47.354;8.528;2022-08-26T03:55:11;5.97;;;4.13;;
4577;SDS011;2301;47.354;8.528;2022-08-26T03:57:39;6.40;;;5.00;;
4577;SDS011;2301;47.354;8.528;2022-08-26T04:00:08;4.70;;;4.10;;
4577;SDS011;2301;47.354;8.528;2022-08-26T04:02:37;4.70;;;4.30;;
4577;SDS011;2301;47.354;8.528;2022-08-26T04:05:05;5.70;;;4.63;;
4577;SDS011;2301;47.354;8.528;2022-08-26T04:07:32;4.33;;;4.03;;
4577;SDS011;2301;47.354;8.528;2022-08-26T04:10:00;4.80;;;4.27;;
4577;SDS011;2301;47.354;8.528;2022-08-26T04:12:28;4.60;;;4.20;;
4577;SDS011;2301;47.354;8.528;2022-08-26T04:14:55;4.57;;;4.27;;
4577;SDS011;2301;47.354;8.528;2022-08-26T04:17:22;5.40;;;4.90;;
4577;SDS011;2301;47.354;8.528;2022-08-26T04:19:50;6.07;;;4.50;;
4577;SDS011;2301;47.354;8.528;2022-08-26T04:22:18;8.40;;;5.00;;
4577;SDS011;2301;47.354;8.528;2022-08-26T04:24:44;4.67;;;4.30;;
4577;SDS011;2301;47.354;8.528;2022-08-26T04:27:13;6.30;;;4.63;;
4577;SDS011;2301;47.354;8.528;2022-08-26T04:29:40;5.77;;;4.63;;
4577;SDS011;2301;47.354;8.528;2022-08-26T04:32:07;5.37;;;4.60;;
4577;SDS011;2301;47.354;8.528;2022-08-26T04:34:34;5.13;;;4.20;;
4577;SDS011;2301;47.354;8.528;2022-08-26T04:37:01;5.67;;;5.17;;
4577;SDS011;2301;47.354;8.528;2022-08-26T04:39:29;7.50;;;5.07;;
4577;SDS011;2301;47.354;8.528;2022-08-26T04:41:56;8.50;;;4.83;;
4577;SDS011;2301;47.354;8.528;2022-08-26T04:44:26;4.60;;;4.20;;
4577;SDS011;2301;47.354;8.528;2022-08-26T04:46:53;5.30;;;4.80;;
4577;SDS011;2301;47.354;8.528;2022-08-26T04:49:21;7.83;;;4.87;;
4577;SDS011;2301;47.354;8.528;2022-08-26T04:51:48;8.87;;;5.37;;
4577;SDS011;2301;47.354;8.528;2022-08-26T04:54:15;11.13;;;4.63;;
4577;SDS011;2301;47.354;8.528;2022-08-26T04:56:43;9.70;;;4.73;;
4577;SDS011;2301;47.354;8.528;2022-08-26T04:59:13;10.23;;;5.20;;
4577;SDS011;2301;47.354;8.528;2022-08-26T05:01:43;8.43;;;5.87;;
4577;SDS011;2301;47.354;8.528;2022-08-26T05:04:11;7.53;;;5.37;;
4577;SDS011;2301;47.354;8.528;2022-08-26T05:06:38;6.60;;;5.30;;
4577;SDS011;2301;47.354;8.528;2022-08-26T05:09:05;13.03;;;5.80;;
4577;SDS011;2301;47.354;8.528;2022-08-26T05:11:32;6.93;;;5.20;;
4577;SDS011;2301;47.354;8.528;2022-08-26T05:14:00;7.37;;;5.70;;
4577;SDS011;2301;47.354;8.528;2022-08-26T05:16:27;10.10;;;5.77;;
4577;SDS011;2301;47.354;8.528;2022-08-26T05:18:55;6.43;;;5.63;;
4577;SDS011;2301;47.354;8.528;2022-08-26T05:21:24;7.80;;;6.03;;
4577;SDS011;2301;47.354;8.528;2022-08-26T05:23:53;7.17;;;5.70;;
4577;SDS011;2301;47.354;8.528;2022-08-26T05:26:21;10.87;;;6.00;;
4577;SDS011;2301;47.354;8.528;2022-08-26T05:28:49;10.33;;;6.63;;
4577;SDS011;2301;47.354;8.528;2022-08-26T05:31:17;11.90;;;6.40;;
4577;SDS011;2301;47.354;8.528;2022-08-26T05:33:45;7.53;;;5.80;;
4577;SDS011;2301;47.354;8.528;2022-08-26T05:36:15;14.23;;;7.30;;
4577;SDS011;2301;47.354;8.528;2022-08-26T05:38:43;9.27;;;6.33;;
4577;SDS011;2301;47.354;8.528;2022-08-26T05:41:15;10.00;;;6.73;;
4577;SDS011;2301;47.354;8.528;2022-08-26T05:43:44;11.90;;;6.50;;
4577;SDS011;2301;47.354;8.528;2022-08-26T05:46:11;15.40;;;7.13;;
4577;SDS011;2301;47.354;8.528;2022-08-26T05:48:38;13.30;;;7.23;;
4577;SDS011;2301;47.354;8.528;2022-08-26T05:51:07;18.60;;;7.20;;
4577;SDS011;2301;47.354;8.528;2022-08-26T05:53:37;11.83;;;7.13;;
4577;SDS011;2301;47.354;8.528;2022-08-26T05:56:05;13.80;;;7.27;;
4577;SDS011;2301;47.354;8.528;2022-08-26T05:58:34;11.77;;;8.27;;
4577;SDS011;2301;47.354;8.528;2022-08-26T06:01:03;8.03;;;6.20;;
4577;SDS011;2301;47.354;8.528;2022-08-26T06:03:31;14.97;;;7.60;;
4577;SDS011;2301;47.354;8.528;2022-08-26T06:06:02;12.43;;;7.90;;
4577;SDS011;2301;47.354;8.528;2022-08-26T06:08:30;12.23;;;8.03;;
4577;SDS011;2301;47.354;8.528;2022-08-26T06:11:00;12.57;;;7.60;;
4577;SDS011;2301;47.354;8.528;2022-08-26T06:13:28;11.53;;;8.10;;
4577;SDS011;2301;47.354;8.528;2022-08-26T06:15:56;10.33;;;8.40;;
4577;SDS011;2301;47.354;8.528;2022-08-26T06:18:25;12.43;;;8.20;;
4577;SDS011;2301;47.354;8.528;2022-08-26T06:20:57;12.13;;;8.60;;
4577;SDS011;2301;47.354;8.528;2022-08-26T06:23:25;10.00;;;8.20;;
4577;SDS011;2301;47.354;8.528;2022-08-26T06:26:14;9.13;;;7.57;;
4577;SDS011;2301;47.354;8.528;2022-08-26T06:28:42;11.90;;;7.47;;
4577;SDS011;2301;47.354;8.528;2022-08-26T06:31:09;13.17;;;8.57;;
4577;SDS011;2301;47.354;8.528;2022-08-26T06:33:36;13.33;;;8.60;;
4577;SDS011;2301;47.354;8.528;2022-08-26T06:36:03;14.57;;;8.07;;
4577;SDS011;2301;47.354;8.528;2022-08-26T06:38:30;8.90;;;6.97;;
4577;SDS011;2301;47.354;8.528;2022-08-26T06:40:57;12.43;;;7.60;;
4577;SDS011;2301;47.354;8.528;2022-08-26T06:43:26;8.87;;;7.50;;
4577;SDS011;2301;47.354;8.528;2022-08-26T06:46:00;9.87;;;6.90;;
4577;SDS011;2301;47.354;8.528;2022-08-26T06:48:32;11.77;;;7.23;;
4577;SDS011;2301;47.354;8.528;2022-08-26T06:51:01;13.70;;;7.60;;
4577;SDS011;2301;47.354;8.528;2022-08-26T06:53:30;12.83;;;6.80;;
4577;SDS011;2301;47.354;8.528;2022-08-26T06:55:57;7.50;;;6.70;;
4577;SDS011;2301;47.354;8.528;2022-08-26T06:58:25;10.63;;;6.27;;
4577;SDS011;2301;47.354;8.528;2022-08-26T07:00:52;12.27;;;6.87;;
4577;SDS011;2301;47.354;8.528;2022-08-26T07:03:19;12.70;;;7.00;;
4577;SDS011;2301;47.354;8.528;2022-08-26T07:05:46;12.87;;;7.50;;
4577;SDS011;2301;47.354;8.528;2022-08-26T07:08:13;9.87;;;7.60;;
4577;SDS011;2301;47.354;8.528;2022-08-26T07:10:40;7.67;;;6.87;;
4577;SDS011;2301;47.354;8.528;2022-08-26T07:13:07;8.00;;;6.50;;
4577;SDS011;2301;47.354;8.528;2022-08-26T07:15:39;14.17;;;7.60;;
4577;SDS011;2301;47.354;8.528;2022-08-26T07:18:06;10.60;;;7.00;;
4577;SDS011;2301;47.354;8.528;2022-08-26T07:20:35;8.30;;;7.03;;
4577;SDS011;2301;47.354;8.528;2022-08-26T07:23:05;11.13;;;7.23;;
4577;SDS011;2301;47.354;8.528;2022-08-26T07:25:32;16.07;;;6.30;;
4577;SDS011;2301;47.354;8.528;2022-08-26T07:27:59;14.07;;;6.97;;
4577;SDS011;2301;47.354;8.528;2022-08-26T07:30:26;9.80;;;6.43;;
4577;SDS011;2301;47.354;8.528;2022-08-26T07:32:56;13.07;;;6.80;;
4577;SDS011;2301;47.354;8.528;2022-08-26T07:35:23;10.77;;;6.70;;
4577;SDS011;2301;47.354;8.528;2022-08-26T07:37:50;6.07;;;5.43;;
4577;SDS011;2301;47.354;8.528;2022-08-26T07:40:18;11.10;;;6.47;;
4577;SDS011;2301;47.354;8.528;2022-08-26T07:42:45;10.50;;;6.60;;
4577;SDS011;2301;47.354;8.528;2022-08-26T07:45:12;12.77;;;5.70;;
4577;SDS011;2301;47.354;8.528;2022-08-26T07:47:39;17.40;;;6.67;;
4577;SDS011;2301;47.354;8.528;2022-08-26T07:50:08;9.43;;;6.87;;
4577;SDS011;2301;47.354;8.528;2022-08-26T07:52:35;7.53;;;5.03;;
4577;SDS011;2301;47.354;8.528;2022-08-26T07:55:03;8.37;;;5.10;;
4577;SDS011;2301;47.354;8.528;2022-08-26T07:57:31;5.40;;;4.70;;
4577;SDS011;2301;47.354;8.528;2022-08-26T07:59:58;6.90;;;5.20;;
4577;SDS011;2301;47.354;8.528;2022-08-26T08:02:27;8.23;;;5.50;;
4577;SDS011;2301;47.354;8.528;2022-08-26T08:04:54;7.63;;;5.30;;
4577;SDS011;2301;47.354;8.528;2022-08-26T08:07:24;6.23;;;4.90;;
4577;SDS011;2301;47.354;8.528;2022-08-26T08:09:52;6.03;;;5.20;;
4577;SDS011;2301;47.354;8.528;2022-08-26T08:12:19;7.37;;;5.83;;
4577;SDS011;2301;47.354;8.528;2022-08-26T08:14:46;11.87;;;5.63;;
4577;SDS011;2301;47.354;8.528;2022-08-26T08:17:14;7.00;;;5.53;;
4577;SDS011;2301;47.354;8.528;2022-08-26T08:19:41;8.43;;;6.50;;
4577;SDS011;2301;47.354;8.528;2022-08-26T08:22:08;8.20;;;6.27;;
4577;SDS011;2301;47.354;8.528;2022-08-26T08:24:37;11.83;;;5.60;;
4577;SDS011;2301;47.354;8.528;2022-08-26T08:27:04;7.83;;;5.90;;
4577;SDS011;2301;47.354;8.528;2022-08-26T08:29:31;7.93;;;5.43;;
4577;SDS011;2301;47.354;8.528;2022-08-26T08:31:58;8.73;;;6.03;;
4577;SDS011;2301;47.354;8.528;2022-08-26T08:34:26;8.33;;;6.03;;
4577;SDS011;2301;47.354;8.528;2022-08-26T08:36:53;8.77;;;5.27;;
4577;SDS011;2301;47.354;8.528;2022-08-26T08:39:21;8.37;;;5.50;;
4577;SDS011;2301;47.354;8.528;2022-08-26T08:44:56;7.40;;;5.30;;
4577;SDS011;2301;47.354;8.528;2022-08-26T08:47:28;11.50;;;5.97;;
4577;SDS011;2301;47.354;8.528;2022-08-26T08:50:03;10.00;;;5.67;;
4577;SDS011;2301;47.354;8.528;2022-08-26T08:52:35;5.30;;;4.37;;
4577;SDS011;2301;47.354;8.528;2022-08-26T08:55:04;6.13;;;5.53;;
4577;SDS011;2301;47.354;8.528;2022-08-26T08:57:38;7.77;;;4.93;;
4577;SDS011;2301;47.354;8.528;2022-08-26T09:00:19;13.83;;;4.70;;
4577;SDS011;2301;47.354;8.528;2022-08-26T09:02:50;5.77;;;5.27;;
4577;SDS011;2301;47.354;8.528;2022-08-26T09:05:22;6.70;;;5.60;;
4577;SDS011;2301;47.354;8.528;2022-08-26T09:07:54;11.60;;;5.03;;
4577;SDS011;2301;47.354;8.528;2022-08-26T09:10:31;7.27;;;5.70;;
4577;SDS011;2301;47.354;8.528;2022-08-26T09:13:02;6.50;;;5.00;;
4577;SDS011;2301;47.354;8.528;2022-08-26T09:15:34;5.53;;;4.10;;
4577;SDS011;2301;47.354;8.528;2022-08-26T09:18:15;11.10;;;4.77;;
4577;SDS011;2301;47.354;8.528;2022-08-26T09:20:53;4.67;;;3.87;;
4577;SDS011;2301;47.354;8.528;2022-08-26T09:23:22;5.13;;;4.20;;
4577;SDS011;2301;47.354;8.528;2022-08-26T09:25:51;4.20;;;3.60;;
4577;SDS011;2301;47.354;8.528;2022-08-26T09:28:20;5.30;;;3.27;;
4577;SDS011;2301;47.354;8.528;2022-08-26T09:30:58;5.27;;;3.30;;
4577;SDS011;2301;47.354;8.528;2022-08-26T09:33:34;3.93;;;3.53;;
4577;SDS011;2301;47.354;8.528;2022-08-26T09:36:17;5.40;;;2.90;;
4577;SDS011;2301;47.354;8.528;2022-08-26T09:38:47;3.20;;;3.00;;
4577;SDS011;2301;47.354;8.528;2022-08-26T09:41:25;5.50;;;3.33;;
4577;SDS011;2301;47.354;8.528;2022-08-26T09:44:09;7.03;;;3.37;;
4577;SDS011;2301;47.354;8.528;2022-08-26T09:46:40;5.30;;;2.87;;
4577;SDS011;2301;47.354;8.528;2022-08-26T09:49:21;5.53;;;3.33;;
4577;SDS011;2301;47.354;8.528;2022-08-26T09:52:05;4.60;;;3.20;;
4577;SDS011;2301;47.354;8.528;2022-08-26T09:54:40;3.30;;;2.83;;
4577;SDS011;2301;47.354;8.528;2022-08-26T09:57:16;4.83;;;3.10;;
4577;SDS011;2301;47.354;8.528;2022-08-26T09:59:45;3.87;;;3.10;;
4577;SDS011;2301;47.354;8.528;2022-08-26T10:05:09;4.07;;;3.70;;
4577;SDS011;2301;47.354;8.528;2022-08-26T10:07:43;3.57;;;3.00;;
4577;SDS011;2301;47.354;8.528;2022-08-26T10:10:13;5.00;;;2.97;;
4577;SDS011;2301;47.354;8.528;2022-08-26T10:12:57;4.13;;;2.63;;
4577;SDS011;2301;47.354;8.528;2022-08-26T10:15:29;2.90;;;2.67;;
4577;SDS011;2301;47.354;8.528;2022-08-26T10:18:05;3.13;;;2.80;;
4577;SDS011;2301;47.354;8.528;2022-08-26T10:20:40;4.60;;;3.37;;
4577;SDS011;2301;47.354;8.528;2022-08-26T10:23:15;6.00;;;3.10;;
4577;SDS011;2301;47.354;8.528;2022-08-26T10:25:46;3.57;;;2.80;;
4577;SDS011;2301;47.354;8.528;2022-08-26T10:28:19;3.10;;;2.70;;
4577;SDS011;2301;47.354;8.528;2022-08-26T10:30:54;3.13;;;2.93;;
4577;SDS011;2301;47.354;8.528;2022-08-26T10:33:26;5.67;;;3.57;;
4577;SDS011;2301;47.354;8.528;2022-08-26T10:35:54;4.30;;;2.97;;
4577;SDS011;2301;47.354;8.528;2022-08-26T10:38:26;7.00;;;3.20;;
4577;SDS011;2301;47.354;8.528;2022-08-26T10:40:59;3.33;;;3.07;;
4577;SDS011;2301;47.354;8.528;2022-08-26T10:43:31;3.03;;;2.83;;
4577;SDS011;2301;47.354;8.528;2022-08-26T10:46:02;3.20;;;2.90;;
4577;SDS011;2301;47.354;8.528;2022-08-26T10:48:33;7.73;;;3.37;;
4577;SDS011;2301;47.354;8.528;2022-08-26T10:51:04;4.50;;;3.10;;
4577;SDS011;2301;47.354;8.528;2022-08-26T10:53:35;5.10;;;3.10;;
4577;SDS011;2301;47.354;8.528;2022-08-26T10:56:13;3.23;;;2.80;;
4577;SDS011;2301;47.354;8.528;2022-08-26T10:58:53;4.07;;;2.97;;
4577;SDS011;2301;47.354;8.528;2022-08-26T11:01:27;3.20;;;3.00;;
4577;SDS011;2301;47.354;8.528;2022-08-26T11:04:18;4.03;;;2.93;;
4577;SDS011;2301;47.354;8.528;2022-08-26T11:09:50;4.33;;;3.50;;
4577;SDS011;2301;47.354;8.528;2022-08-26T11:15:24;4.17;;;3.17;;
4577;SDS011;2301;47.354;8.528;2022-08-26T11:18:42;4.80;;;3.03;;
4577;SDS011;2301;47.354;8.528;2022-08-26T11:24:42;5.47;;;3.57;;
4577;SDS011;2301;47.354;8.528;2022-08-26T11:33:09;7.67;;;3.33;;
4577;SDS011;2301;47.354;8.528;2022-08-26T11:35:57;3.30;;;3.10;;
4577;SDS011;2301;47.354;8.528;2022-08-26T11:38:26;4.63;;;3.63;;
4577;SDS011;2301;47.354;8.528;2022-08-26T11:40:55;3.80;;;3.30;;
4577;SDS011;2301;47.354;8.528;2022-08-26T11:43:30;5.10;;;3.47;;
4577;SDS011;2301;47.354;8.528;2022-08-26T11:46:00;8.63;;;3.10;;
4577;SDS011;2301;47.354;8.528;2022-08-26T11:48:30;5.93;;;3.27;;
4577;SDS011;2301;47.354;8.528;2022-08-26T11:51:00;8.93;;;3.63;;
4577;SDS011;2301;47.354;8.528;2022-08-26T11:53:29;5.00;;;2.90;;
4577;SDS011;2301;47.354;8.528;2022-08-26T11:55:58;5.40;;;3.10;;
4577;SDS011;2301;47.354;8.528;2022-08-26T11:58:29;3.40;;;3.10;;
4577;SDS011;2301;47.354;8.528;2022-08-26T12:00:57;3.73;;;3.50;;
4577;SDS011;2301;47.354;8.528;2022-08-26T12:03:29;3.77;;;3.30;;
4577;SDS011;2301;47.354;8.528;2022-08-26T12:06:10;5.20;;;3.27;;
4577;SDS011;2301;47.354;8.528;2022-08-26T12:08:39;3.27;;;3.07;;
4577;SDS011;2301;47.354;8.528;2022-08-26T12:11:09;3.80;;;3.50;;
4577;SDS011;2301;47.354;8.528;2022-08-26T12:13:38;6.80;;;3.40;;
4577;SDS011;2301;47.354;8.528;2022-08-26T12:16:06;7.17;;;4.07;;
4577;SDS011;2301;47.354;8.528;2022-08-26T12:18:35;6.83;;;3.93;;
4577;SDS011;2301;47.354;8.528;2022-08-26T12:21:11;6.60;;;3.60;;
4577;SDS011;2301;47.354;8.528;2022-08-26T12:23:42;5.90;;;3.30;;
4577;SDS011;2301;47.354;8.528;2022-08-26T12:26:12;3.77;;;3.50;;
4577;SDS011;2301;47.354;8.528;2022-08-26T12:28:47;4.67;;;3.70;;
4577;SDS011;2301;47.354;8.528;2022-08-26T12:31:18;3.80;;;3.50;;
4577;SDS011;2301;47.354;8.528;2022-08-26T12:33:48;6.10;;;3.43;;
4577;SDS011;2301;47.354;8.528;2022-08-26T12:36:19;5.57;;;3.27;;
4577;SDS011;2301;47.354;8.528;2022-08-26T12:38:49;3.50;;;3.20;;
4577;SDS011;2301;47.354;8.528;2022-08-26T12:44:03;3.50;;;3.20;;
4577;SDS011;2301;47.354;8.528;2022-08-26T12:46:30;7.50;;;3.63;;
4577;SDS011;2301;47.354;8.528;2022-08-26T12:48:57;3.77;;;3.23;;
4577;SDS011;2301;47.354;8.528;2022-08-26T12:51:27;3.50;;;3.20;;
4577;SDS011;2301;47.354;8.528;2022-08-26T12:53:55;4.03;;;2.70;;
4577;SDS011;2301;47.354;8.528;2022-08-26T12:56:29;4.80;;;2.87;;
4577;SDS011;2301;47.354;8.528;2022-08-26T12:59:04;7.30;;;2.87;;
4577;SDS011;2301;47.354;8.528;2022-08-26T13:01:40;4.17;;;3.17;;
4577;SDS011;2301;47.354;8.528;2022-08-26T13:07:11;3.40;;;2.60;;
4577;SDS011;2301;47.354;8.528;2022-08-26T13:09:49;4.63;;;2.73;;
4577;SDS011;2301;47.354;8.528;2022-08-26T13:12:25;3.10;;;2.60;;
4577;SDS011;2301;47.354;8.528;2022-08-26T13:14:54;5.93;;;2.90;;
4577;SDS011;2301;47.354;8.528;2022-08-26T13:17:22;2.87;;;2.67;;
4577;SDS011;2301;47.354;8.528;2022-08-26T13:19:50;6.10;;;3.07;;
4577;SDS011;2301;47.354;8.528;2022-08-26T13:22:20;3.13;;;2.90;;
4577;SDS011;2301;47.354;8.528;2022-08-26T13:24:49;3.50;;;3.30;;
4577;SDS011;2301;47.354;8.528;2022-08-26T13:27:19;8.30;;;3.57;;
4577;SDS011;2301;47.354;8.528;2022-08-26T13:29:48;8.70;;;3.27;;
4577;SDS011;2301;47.354;8.528;2022-08-26T13:32:16;5.40;;;3.43;;
4577;SDS011;2301;47.354;8.528;2022-08-26T13:34:44;3.20;;;2.77;;
4577;SDS011;2301;47.354;8.528;2022-08-26T13:37:16;3.60;;;3.17;;
4577;SDS011;2301;47.354;8.528;2022-08-26T13:39:47;6.70;;;2.73;;
4577;SDS011;2301;47.354;8.528;2022-08-26T13:42:14;3.30;;;3.00;;
4577;SDS011;2301;47.354;8.528;2022-08-26T13:44:42;3.97;;;3.00;;
4577;SDS011;2301;47.354;8.528;2022-08-26T13:47:11;7.63;;;2.90;;
4577;SDS011;2301;47.354;8.528;2022-08-26T13:49:39;4.07;;;3.20;;
4577;SDS011;2301;47.354;8.528;2022-08-26T13:52:07;3.20;;;3.00;;
4577;SDS011;2301;47.354;8.528;2022-08-26T13:54:34;5.97;;;2.87;;
4577;SDS011;2301;47.354;8.528;2022-08-26T13:57:02;4.30;;;3.17;;
4577;SDS011;2301;47.354;8.528;2022-08-26T13:59:30;6.53;;;3.47;;
4577;SDS011;2301;47.354;8.528;2022-08-26T14:01:57;6.53;;;2.77;;
4577;SDS011;2301;47.354;8.528;2022-08-26T14:04:25;2.60;;;2.40;;
4577;SDS011;2301;47.354;8.528;2022-08-26T14:06:52;2.50;;;2.30;;
4577;SDS011;2301;47.354;8.528;2022-08-26T14:09:19;2.77;;;2.57;;
4577;SDS011;2301;47.354;8.528;2022-08-26T14:11:46;3.30;;;2.73;;
4577;SDS011;2301;47.354;8.528;2022-08-26T14:14:14;2.80;;;2.50;;
4577;SDS011;2301;47.354;8.528;2022-08-26T14:16:41;4.07;;;2.80;;
4577;SDS011;2301;47.354;8.528;2022-08-26T14:19:08;4.27;;;3.00;;
4577;SDS011;2301;47.354;8.528;2022-08-26T14:21:36;6.40;;;3.57;;
4577;SDS011;2301;47.354;8.528;2022-08-26T14:24:04;5.43;;;3.60;;
4577;SDS011;2301;47.354;8.528;2022-08-26T14:26:32;12.10;;;3.43;;
4577;SDS011;2301;47.354;8.528;2022-08-26T14:28:59;3.20;;;2.80;;
4577;SDS011;2301;47.354;8.528;2022-08-26T14:31:29;3.57;;;3.27;;
4577;SDS011;2301;47.354;8.528;2022-08-26T14:33:57;5.33;;;3.60;;
4577;SDS011;2301;47.354;8.528;2022-08-26T14:36:26;5.73;;;3.00;;
4577;SDS011;2301;47.354;8.528;2022-08-26T14:38:56;6.60;;;3.80;;
4577;SDS011;2301;47.354;8.528;2022-08-26T14:41:26;6.23;;;3.33;;
4577;SDS011;2301;47.354;8.528;2022-08-26T14:43:55;5.27;;;3.30;;
4577;SDS011;2301;47.354;8.528;2022-08-26T14:46:24;5.33;;;3.10;;
4577;SDS011;2301;47.354;8.528;2022-08-26T14:48:56;6.50;;;3.60;;
4577;SDS011;2301;47.354;8.528;2022-08-26T14:51:24;9.33;;;3.47;;
4577;SDS011;2301;47.354;8.528;2022-08-26T14:53:51;3.90;;;3.60;;
4577;SDS011;2301;47.354;8.528;2022-08-26T14:56:35;7.20;;;3.47;;
4577;SDS011;2301;47.354;8.528;2022-08-26T14:59:04;7.97;;;4.17;;
4577;SDS011;2301;47.354;8.528;2022-08-26T15:01:32;4.90;;;3.57;;
4577;SDS011;2301;47.354;8.528;2022-08-26T15:04:00;7.67;;;3.30;;
4577;SDS011;2301;47.354;8.528;2022-08-26T15:06:28;4.57;;;3.50;;
4577;SDS011;2301;47.354;8.528;2022-08-26T15:08:56;4.73;;;4.20;;
4577;SDS011;2301;47.354;8.528;2022-08-26T15:11:23;5.77;;;4.00;;
4577;SDS011;2301;47.354;8.528;2022-08-26T15:13:51;4.70;;;3.87;;
4577;SDS011;2301;47.354;8.528;2022-08-26T15:16:18;10.50;;;4.63;;
4577;SDS011;2301;47.354;8.528;2022-08-26T15:18:45;6.10;;;4.20;;
4577;SDS011;2301;47.354;8.528;2022-08-26T15:21:14;4.37;;;3.97;;
4577;SDS011;2301;47.354;8.528;2022-08-26T15:23:41;12.73;;;4.70;;
4577;SDS011;2301;47.354;8.528;2022-08-26T15:26:09;5.00;;;4.50;;
4577;SDS011;2301;47.354;8.528;2022-08-26T15:28:37;9.07;;;4.20;;
4577;SDS011;2301;47.354;8.528;2022-08-26T15:31:05;6.13;;;4.10;;
4577;SDS011;2301;47.354;8.528;2022-08-26T15:33:36;7.80;;;4.93;;
4577;SDS011;2301;47.354;8.528;2022-08-26T15:36:05;8.17;;;5.03;;
4577;SDS011;2301;47.354;8.528;2022-08-26T15:38:35;5.80;;;4.67;;
4577;SDS011;2301;47.354;8.528;2022-08-26T15:41:06;7.40;;;5.23;;
4577;SDS011;2301;47.354;8.528;2022-08-26T15:43:35;6.50;;;5.10;;
4577;SDS011;2301;47.354;8.528;2022-08-26T15:46:03;5.13;;;4.63;;
4577;SDS011;2301;47.354;8.528;2022-08-26T15:48:36;14.83;;;4.90;;
4577;SDS011;2301;47.354;8.528;2022-08-26T15:51:04;10.33;;;4.67;;
4577;SDS011;2301;47.354;8.528;2022-08-26T15:53:32;8.13;;;5.43;;
4577;SDS011;2301;47.354;8.528;2022-08-26T15:56:01;8.07;;;5.27;;